Time;durP1;ratioP1;P1;durP2;ratioP2;P2;SDS_P1;SDS_P2;PMS_P1;PMS_P2;Temp;Humidity;BMP_temperature;BMP_pressure;BME280_temperature;BME280_humidity;BME280_pressure;Samples;Min_cycle;Max_cycle;Signal;HPM_P1;HPM_P2
2022/05/03 00:01:54;;;;;;;41.00;18.88;;;;;;;29.69;75.96;97514.53;4819742;29;20367;-67
2022/05/03 00:05:09;;;;;;;45.40;20.42;;;;;;;29.69;75.75;97514.53;4834447;29;20114;-67
2022/05/03 00:07:56;;;;;;;39.10;18.42;;;;;;;29.68;76.76;97519.00;4816929;29;20898;-68
2022/05/03 00:11:08;;;;;;;36.15;18.45;;;;;;;29.64;77.18;97514.28;4820175;29;20153;-67
2022/05/03 00:14:24;;;;;;;38.83;18.67;;;;;;;29.62;78.70;97508.31;4810050;29;20046;-67
2022/05/03 00:17:00;;;;;;;42.72;18.67;;;;;;;29.55;77.37;97518.91;4817523;29;20239;-67
2022/05/03 00:19:51;;;;;;;35.30;19.52;;;;;;;29.55;79.93;97534.00;4816882;29;20058;-67
2022/05/03 00:22:35;;;;;;;32.28;19.13;;;;;;;29.54;82.69;97527.06;4816684;29;20051;-67
2022/05/03 00:25:31;;;;;;;40.20;20.13;;;;;;;29.51;79.35;97535.44;4782660;29;20058;-66
2022/05/03 00:28:07;;;;;;;51.92;19.17;;;;;;;29.47;75.37;97550.91;4798760;29;20051;-67
2022/05/03 00:30:56;;;;;;;38.13;18.85;;;;;;;29.52;82.16;97553.00;4798890;29;20800;-67
2022/05/03 00:33:46;;;;;;;38.15;18.85;;;;;;;29.47;79.94;97563.38;4807592;29;20046;-67
2022/05/03 00:36:40;;;;;;;59.00;21.92;;;;;;;29.42;77.06;97565.78;4816346;29;20054;-67
2022/05/03 00:39:16;;;;;;;43.53;19.55;;;;;;;29.41;76.39;97577.41;4816510;29;20115;-67
2022/05/03 00:42:22;;;;;;;45.83;20.73;;;;;;;29.44;76.43;97588.47;4816876;29;20050;-66
2022/05/03 00:45:35;;;;;;;53.15;19.70;;;;;;;29.42;77.20;97592.31;4816683;29;20050;-67
2022/05/03 00:48:43;;;;;;;46.58;19.40;;;;;;;29.45;80.39;97602.56;4824278;29;20115;-67
2022/05/03 00:51:55;;;;;;;47.15;20.17;;;;;;;29.45;79.57;97610.53;4817324;29;20130;-68
2022/05/03 00:55:02;;;;;;;47.67;18.95;;;;;;;29.42;79.43;97613.56;4801895;29;20049;-68
2022/05/03 00:58:05;;;;;;;38.10;18.75;;;;;;;29.46;83.26;97620.13;4804106;29;20130;-68
2022/05/03 01:01:20;;;;;;;45.25;20.23;;;;;;;29.39;78.29;97624.53;4814690;29;20050;-68
2022/05/03 01:04:26;;;;;;;66.10;19.92;;;;;;;29.38;76.99;97615.75;4807951;29;20308;-68
2022/05/03 01:07:22;;;;;;;63.67;21.73;;;;;;;29.41;76.63;97617.22;4797885;29;20054;-68
2022/05/03 01:10:37;;;;;;;45.17;20.63;;;;;;;29.45;76.49;97598.09;4808584;29;20054;-67
2022/05/03 01:13:39;;;;;;;73.60;23.13;;;;;;;29.48;75.42;97602.16;4830736;29;20057;-66
2022/05/03 01:16:45;;;;;;;57.63;20.73;;;;;;;29.48;76.03;97604.81;4822774;29;20053;-67
2022/05/03 01:19:49;;;;;;;55.55;20.77;;;;;;;29.53;76.56;97605.09;4834574;29;20150;-66
2022/05/03 01:22:53;;;;;;;61.88;21.48;;;;;;;29.56;78.20;97604.69;4833586;29;20057;-66
2022/05/03 01:25:45;;;;;;;56.35;21.77;;;;;;;29.57;76.87;97614.28;4833975;29;20047;-66
2022/05/03 01:28:36;;;;;;;52.08;19.67;;;;;;;29.65;76.53;97627.44;4834573;29;20058;-65
2022/05/03 01:31:20;;;;;;;49.33;20.17;;;;;;;29.62;77.74;97633.94;4834402;29;20046;-66
2022/05/03 01:34:12;;;;;;;48.95;19.77;;;;;;;29.69;80.29;97641.97;4833943;29;20074;-67
2022/05/03 01:37:00;;;;;;;56.42;21.08;;;;;;;29.68;74.56;97650.97;4834367;29;20050;-67
2022/05/03 01:40:25;;;;;;;65.35;20.52;;;;;;;29.72;76.76;97646.06;4837643;29;20122;-67
2022/05/03 01:43:50;;;;;;;74.03;20.73;;;;;;;29.79;75.53;97642.44;4832661;29;20053;-68
2022/05/03 01:46:36;;;;;;;65.50;21.05;;;;;;;29.85;76.76;97632.91;4832480;29;20140;-67
2022/05/03 01:53:09;;;;;;;53.95;20.63;;;;;;;29.86;76.11;97635.34;4829426;29;20446;-67
2022/05/03 01:56:36;;;;;;;60.97;21.63;;;;;;;30.01;74.72;97640.63;4833879;29;20054;-68
2022/05/03 01:59:32;;;;;;;58.90;22.02;;;;;;;30.10;74.30;97649.22;4832876;29;20057;-67
2022/05/03 02:02:32;;;;;;;53.38;21.52;;;;;;;30.13;74.00;97665.63;4833373;29;20137;-67
2022/05/03 02:05:36;;;;;;;57.85;21.60;;;;;;;30.22;74.86;97660.97;4832726;29;20057;-67
2022/05/03 02:08:35;;;;;;;67.15;22.67;;;;;;;30.35;75.68;97674.31;4817958;29;20050;-67
2022/05/03 02:11:44;;;;;;;57.67;23.48;;;;;;;30.34;73.54;97670.84;4837350;29;20046;-68
2022/05/03 02:14:47;;;;;;;70.00;23.20;;;;;;;30.42;75.45;97670.69;4828465;29;20062;-67
2022/05/03 02:17:42;;;;;;;63.63;23.00;;;;;;;30.61;76.29;97674.50;4820569;29;20739;-67
2022/05/03 02:21:16;;;;;;;52.53;23.17;;;;;;;30.64;72.37;97676.78;4837177;29;20145;-67
2022/05/03 02:24:10;;;;;;;61.13;23.80;;;;;;;30.80;73.36;97689.75;4726893;30;20465;-68
2022/05/03 02:27:15;;;;;;;54.60;22.40;;;;;;;30.96;71.83;97693.09;4726877;30;20122;-67
2022/05/03 02:30:00;;;;;;;51.38;21.13;;;;;;;30.98;69.97;97705.16;4836458;29;20631;-67
2022/05/03 02:33:05;;;;;;;59.75;21.83;;;;;;;31.16;71.05;97715.28;4837641;29;20126;-67
2022/05/03 02:35:51;;;;;;;60.20;21.42;;;;;;;31.26;68.49;97721.06;4837003;29;20057;-67
2022/05/03 02:38:50;;;;;;;63.47;21.15;;;;;;;31.33;68.93;97723.72;4806623;29;20061;-67
2022/05/03 02:41:42;;;;;;;60.42;23.17;;;;;;;31.40;71.22;97728.03;4838167;29;20061;-68
2022/05/03 02:44:35;;;;;;;67.78;24.25;;;;;;;31.36;65.19;97737.47;4821132;29;20050;-68
2022/05/03 02:47:56;;;;;;;65.80;21.05;;;;;;;31.66;69.73;97737.16;4836279;29;20130;-68
2022/05/03 02:51:08;;;;;;;87.47;22.05;;;;;;;31.61;68.05;97743.06;4836160;29;20060;-68
2022/05/03 02:54:10;;;;;;;77.00;22.27;;;;;;;31.96;68.41;97746.38;4832112;29;20049;-67
2022/05/03 02:57:39;;;;;;;69.47;22.13;;;;;;;31.87;62.68;97747.59;4834661;29;20053;-67
2022/05/03 03:03:44;;;;;;;83.78;22.73;;;;;;;32.30;66.12;97759.56;4836091;29;20077;-67
2022/05/03 03:06:36;;;;;;;63.25;23.95;;;;;;;32.50;71.68;97756.84;4835483;29;20386;-68
2022/05/03 03:09:41;;;;;;;87.07;24.90;;;;;;;32.54;61.51;97771.41;4836967;29;20160;-67
2022/05/03 03:12:56;;;;;;;76.25;21.95;;;;;;;32.69;63.92;97760.53;4836936;29;20057;-67
2022/05/03 03:15:41;;;;;;;91.70;23.83;;;;;;;32.87;65.95;97770.56;4838321;29;20053;-67
2022/05/03 03:18:34;;;;;;;77.70;23.75;;;;;;;32.75;59.43;97780.22;4842987;29;20114;-67
2022/05/03 03:21:30;;;;;;;78.82;23.80;;;;;;;32.99;62.45;97761.69;4842874;29;20657;-67
2022/05/03 03:24:21;;;;;;;92.80;25.50;;;;;;;33.08;55.81;97772.94;4836222;29;20138;-67
2022/05/03 03:27:12;;;;;;;76.75;22.27;;;;;;;33.30;62.74;97790.34;4836195;29;20469;-67
2022/05/03 03:29:49;;;;;;;94.55;24.92;;;;;;;33.39;58.68;97798.94;4836796;29;20463;-68
2022/05/03 03:32:37;;;;;;;105.43;23.52;;;;;;;33.41;62.19;97807.56;4836217;29;20046;-69
2022/05/03 03:35:20;;;;;;;99.75;25.50;;;;;;;33.54;55.65;97804.81;4831396;29;20062;-69
2022/05/03 03:38:11;;;;;;;96.88;23.17;;;;;;;33.34;49.21;97804.91;4842028;29;20050;-66
2022/05/03 03:40:53;;;;;;;111.05;24.52;;;;;;;33.45;50.56;97803.41;4844328;29;20057;-70
2022/05/03 03:43:43;;;;;;;87.38;22.95;;;;;;;33.90;55.86;97817.59;4834470;29;20077;-70
2022/05/03 03:46:34;;;;;;;106.82;23.38;;;;;;;33.82;51.31;97811.69;4834700;29;20073;-68
2022/05/03 03:49:17;;;;;;;111.13;23.88;;;;;;;33.96;57.08;97805.22;4826481;29;20052;-68
2022/05/03 03:52:13;;;;;;;91.97;23.45;;;;;;;34.03;55.08;97806.00;4832067;29;20068;-68
2022/05/03 03:55:05;;;;;;;92.95;24.98;;;;;;;34.32;53.59;97816.09;4834250;29;20050;-67
2022/05/03 03:58:03;;;;;;;88.03;22.48;;;;;;;34.45;54.63;97815.97;4834883;29;20565;-69
2022/05/03 04:00:40;;;;;;;101.68;24.17;;;;;;;34.29;51.54;97818.38;4835379;29;20049;-68
2022/05/03 04:03:30;;;;;;;99.75;23.92;;;;;;;34.41;51.33;97824.66;4834072;29;20061;-68
2022/05/03 04:06:18;;;;;;;109.22;22.70;;;;;;;34.72;48.49;97826.44;4834874;29;20114;-67
2022/05/03 04:09:08;;;;;;;87.53;20.50;;;;;;;34.79;43.70;97832.59;4834408;29;20397;-67
2022/05/03 04:11:53;;;;;;;86.00;19.98;;;;;;;34.89;52.04;97838.22;4833284;29;20083;-67
2022/05/03 04:14:47;;;;;;;82.70;21.55;;;;;;;34.91;54.25;97839.66;4835966;29;20146;-67
2022/05/03 04:17:43;;;;;;;104.43;20.17;;;;;;;34.84;47.97;97846.94;4833993;29;20049;-67
2022/05/03 04:20:31;;;;;;;121.75;19.45;;;;;;;34.85;47.17;97853.13;4832965;29;20506;-68
2022/05/03 04:23:13;;;;;;;113.20;20.77;;;;;;;35.05;44.89;97853.72;4834912;29;20582;-68
2022/05/03 04:26:04;;;;;;;96.43;20.98;;;;;;;35.08;50.42;97855.16;4833763;29;20065;-67
2022/05/03 04:28:47;;;;;;;111.60;18.57;;;;;;;35.14;51.80;97863.09;4832569;29;20050;-68
2022/05/03 04:31:37;;;;;;;106.75;20.30;;;;;;;35.12;47.79;97865.19;4831227;29;20118;-67
2022/05/03 04:34:20;;;;;;;;;;;;;;;35.21;50.66;97874.56;4829812;29;20058;-68
2022/05/03 04:37:14;;;;;;;98.80;18.48;;;;;;;35.26;49.00;97877.44;4831302;29;19932;-67
2022/05/03 04:39:50;;;;;;;93.45;22.92;;;;;;;34.63;53.06;97878.63;4830582;29;20054;-68
2022/05/03 04:42:39;;;;;;;77.32;24.55;;;;;;;34.50;54.04;97872.31;4831890;29;20057;-67
2022/05/03 04:45:28;;;;;;;90.13;27.13;;;;;;;34.38;57.13;97875.94;4832224;29;20062;-68
2022/05/03 04:48:10;;;;;;;86.57;26.70;;;;;;;33.72;57.90;97876.25;4827262;29;20557;-69
2022/05/03 04:50:59;;;;;;;78.72;25.08;;;;;;;33.84;59.00;97879.94;4832527;29;20546;-67
2022/05/03 04:53:41;;;;;;;83.43;23.75;;;;;;;34.32;55.50;97885.66;4828369;29;20650;-68
2022/05/03 04:56:32;;;;;;;83.95;25.00;;;;;;;34.11;55.03;97888.63;4826917;29;20062;-69
2022/05/03 04:59:14;;;;;;;68.53;26.92;;;;;;;33.80;58.04;97894.75;4834838;29;20420;-68
2022/05/03 05:02:03;;;;;;;103.90;28.13;;;;;;;33.69;55.85;97888.19;4834999;29;20050;-69
2022/05/03 05:04:45;;;;;;;83.60;25.50;;;;;;;33.74;53.47;97899.13;4825359;29;20093;-68
2022/05/03 05:07:34;;;;;;;87.13;26.33;;;;;;;34.07;52.50;97890.09;4826126;29;20501;-68
2022/05/03 05:10:24;;;;;;;71.50;26.67;;;;;;;34.18;53.70;97894.75;4834504;29;20053;-68
2022/05/03 05:13:12;;;;;;;84.47;29.88;;;;;;;34.28;57.60;97900.47;4834238;29;20153;-68
2022/05/03 05:16:00;;;;;;;75.15;31.17;;;;;;;34.31;59.70;97894.72;4836922;29;20080;-68
2022/05/03 05:18:55;;;;;;;65.18;34.80;;;;;;;34.16;61.71;97892.28;4836332;29;20066;-69
2022/05/03 05:21:31;;;;;;;76.20;41.08;;;;;;;33.62;63.21;97884.72;4832565;29;20113;-68
2022/05/03 05:24:20;;;;;;;96.85;43.17;;;;;;;33.29;68.27;97876.00;4832392;29;20053;-68
2022/05/03 05:27:02;;;;;;;79.50;40.10;;;;;;;33.59;68.63;97876.34;4832036;29;20046;-69
2022/05/03 05:29:57;;;;;;;101.15;47.70;;;;;;;33.35;66.78;97883.19;4834210;29;20064;-68
2022/05/03 05:32:34;;;;;;;98.38;48.30;;;;;;;33.31;66.03;97877.44;4834325;29;20061;-71
2022/05/03 05:35:23;;;;;;;91.63;50.45;;;;;;;33.65;65.96;97876.31;4826187;29;20058;-69
2022/05/03 05:38:17;;;;;;;86.53;48.22;;;;;;;33.69;67.82;97880.16;4828292;29;20543;-68
2022/05/03 05:40:58;;;;;;;95.82;47.70;;;;;;;33.63;65.14;97874.84;4832484;29;20070;-68
2022/05/03 05:43:48;;;;;;;145.18;48.67;;;;;;;33.77;63.42;97871.13;4833381;29;20077;-67
2022/05/03 05:46:31;;;;;;;83.45;47.75;;;;;;;33.78;64.23;97873.59;4836033;29;20522;-65
2022/05/03 05:49:19;;;;;;;89.45;46.42;;;;;;;33.72;63.00;97862.91;4820989;29;20050;-65
2022/05/03 05:55:08;;;;;;;91.68;48.10;;;;;;;34.04;61.53;97856.59;4831981;29;20061;-67
2022/05/03 05:57:51;;;;;;;88.15;47.40;;;;;;;33.92;62.54;97857.50;4822846;29;20046;-69
2022/05/03 06:00:39;;;;;;;118.28;46.45;;;;;;;33.92;63.54;97846.81;4834228;29;20826;-68
2022/05/03 06:03:29;;;;;;;99.38;49.30;;;;;;;33.77;63.42;97849.72;4833112;29;20050;-70
2022/05/03 06:06:12;;;;;;;96.32;47.25;;;;;;;33.90;63.09;97859.56;4834564;29;20050;-69
2022/05/03 06:09:01;;;;;;;105.78;49.83;;;;;;;34.07;64.48;97844.66;4834471;29;20046;-67
2022/05/03 06:11:49;;;;;;;90.72;46.10;;;;;;;34.16;62.77;97843.34;4835462;29;20075;-66
2022/05/03 06:14:32;;;;;;;97.40;48.72;;;;;;;33.88;63.07;97841.06;4837410;29;20114;-68
2022/05/03 06:17:27;;;;;;;112.60;48.53;;;;;;;33.60;62.26;97838.72;4832823;29;20069;-67
2022/05/03 06:20:22;;;;;;;93.30;46.45;;;;;;;33.48;62.62;97831.56;4833917;29;20085;-68
2022/05/03 06:22:58;;;;;;;100.03;44.35;;;;;;;33.69;62.25;97820.56;4835076;29;20061;-70
2022/05/03 06:25:47;;;;;;;85.88;44.22;;;;;;;33.96;61.59;97814.06;4839118;29;20088;-70
2022/05/03 06:28:29;;;;;;;94.15;44.05;;;;;;;33.99;63.60;97820.84;4837110;29;20062;-71
2022/05/03 06:31:20;;;;;;;91.40;44.78;;;;;;;33.48;60.95;97815.53;4837328;29;20678;-69
2022/05/03 06:34:02;;;;;;;91.28;42.92;;;;;;;33.99;64.02;97812.81;4838813;29;20046;-69
2022/05/03 06:36:52;;;;;;;89.90;41.95;;;;;;;34.27;61.82;97799.03;4818798;29;20118;-70
2022/05/03 06:39:44;;;;;;;88.70;41.47;;;;;;;34.42;61.45;97797.69;4814456;29;20827;-72
2022/05/03 06:42:28;;;;;;;84.50;39.70;;;;;;;34.66;58.98;97805.91;4836207;29;21547;-68
2022/05/03 06:45:18;;;;;;;81.63;38.95;;;;;;;34.66;57.77;97795.19;4833774;29;20065;-68
2022/05/03 06:48:01;;;;;;;84.82;41.25;;;;;;;34.56;58.25;97791.16;4835847;29;20056;-68
2022/05/03 06:50:50;;;;;;;78.00;42.00;;;;;;;34.64;61.24;97794.63;4834954;29;20122;-68
2022/05/03 06:53:33;;;;;;;108.57;46.25;;;;;;;34.76;58.44;97798.22;4820611;29;20056;-67
2022/05/03 06:56:21;;;;;;;73.20;37.05;;;;;;;34.71;59.37;97795.38;4836369;29;20057;-67
2022/05/03 06:59:16;;;;;;;80.85;40.65;;;;;;;34.91;57.91;97785.28;4831782;29;20096;-66
2022/05/03 07:01:52;;;;;;;106.25;40.95;;;;;;;34.56;56.93;97782.34;4838523;29;20061;-68
2022/05/03 07:04:49;;;;;;;83.93;38.63;;;;;;;34.54;59.29;97771.84;4832479;29;20078;-66
2022/05/03 07:07:26;;;;;;;81.15;37.40;;;;;;;34.77;59.99;97773.09;4834556;29;20054;-67
2022/05/03 07:10:20;;;;;;;77.00;37.53;;;;;;;34.92;57.73;97779.72;4837100;29;20045;-66
2022/05/03 07:12:56;;;;;;;77.72;37.22;;;;;;;34.76;57.13;97758.06;4822375;29;20062;-67
2022/05/03 07:15:45;;;;;;;57.55;36.88;;;;;;;34.55;58.56;97754.75;4833229;29;20054;-66
2022/05/03 07:25:05;;;;;;;76.40;34.43;;;;;;;34.77;57.46;97751.69;4822565;29;20050;-66
2022/05/03 07:27:54;;;;;;;71.05;34.53;;;;;;;34.81;59.36;97751.00;4831082;29;20117;-67
2022/05/03 07:30:43;;;;;;;57.92;32.63;;;;;;;34.70;57.86;97764.28;4836391;29;20435;-67
2022/05/03 07:33:26;;;;;;;80.63;33.65;;;;;;;34.71;56.23;97753.34;4831377;29;20502;-66
2022/05/03 07:36:19;;;;;;;76.47;31.75;;;;;;;34.90;53.65;97759.53;4835451;29;20169;-66
2022/05/03 07:39:09;;;;;;;71.38;27.27;;;;;;;34.83;51.78;97753.44;4832837;29;20042;-66
2022/05/03 07:41:52;;;;;;;98.75;28.52;;;;;;;34.98;46.54;97761.91;4834440;29;20117;-66
2022/05/03 07:44:41;;;;;;;84.15;29.73;;;;;;;35.09;48.87;97755.81;4836321;29;20054;-66
2022/05/03 07:47:23;;;;;;;62.35;28.90;;;;;;;35.20;50.26;97749.69;4836859;29;20061;-66
2022/05/03 07:50:13;;;;;;;74.10;31.13;;;;;;;35.21;49.21;97745.16;4836429;29;20049;-66
2022/05/03 07:53:03;;;;;;;69.63;30.83;;;;;;;34.99;47.98;97736.78;4834683;29;20054;-66
2022/05/03 07:55:45;;;;;;;65.25;27.70;;;;;;;35.20;48.39;97733.63;4834154;29;20093;-66
2022/05/03 07:58:41;;;;;;;68.38;30.92;;;;;;;35.22;49.75;97736.94;4834233;29;20113;-65
2022/05/03 08:01:16;;;;;;;70.20;27.95;;;;;;;35.39;48.08;97730.94;4835325;29;20173;-65
2022/05/03 08:04:12;;;;;;;110.85;30.90;;;;;;;35.39;44.41;97726.41;4831931;29;20057;-65
2022/05/03 08:06:48;;;;;;;67.28;27.25;;;;;;;35.45;47.47;97724.66;4832337;29;20056;-66
2022/05/03 08:09:36;;;;;;;70.00;28.35;;;;;;;35.27;48.23;97712.97;4834812;29;20641;-66
2022/05/03 08:12:19;;;;;;;85.32;29.73;;;;;;;35.21;43.81;97721.03;4836030;29;20073;-66
2022/05/03 08:15:09;;;;;;;91.82;30.48;;;;;;;35.27;46.46;97712.97;4836174;29;20113;-64
2022/05/03 08:17:52;;;;;;;90.95;30.70;;;;;;;35.39;42.85;97710.31;4833570;29;20072;-64
2022/05/03 08:20:48;;;;;;;59.70;27.48;;;;;;;35.32;45.31;97706.94;4834614;29;20497;-65
2022/05/03 08:23:36;;;;;;;74.32;28.17;;;;;;;35.43;45.23;97699.97;4831413;29;20128;-65
2022/05/03 08:26:26;;;;;;;77.38;28.95;;;;;;;35.41;46.45;97694.03;4827069;29;20050;-65
2022/05/03 08:29:09;;;;;;;60.28;25.65;;;;;;;35.41;43.21;97696.72;4814172;29;20074;-64
2022/05/03 08:31:58;;;;;;;84.22;29.75;;;;;;;35.42;42.35;97687.63;4811849;29;20056;-66
2022/05/03 08:34:48;;;;;;;78.07;28.02;;;;;;;35.29;46.12;97685.94;4831076;29;20106;-64
2022/05/03 08:43:48;;;;;;;81.80;37.25;;;;;;;34.97;48.53;97663.88;4830748;29;20062;-64
2022/05/03 08:46:42;;;;;;;76.43;34.50;;;;;;;35.00;47.81;97667.97;4828941;29;20049;-65
2022/05/03 08:49:36;;;;;;;59.63;31.73;;;;;;;35.03;48.31;97663.00;4830264;29;20060;-64
2022/05/03 08:52:28;;;;;;;70.50;34.78;;;;;;;34.95;49.26;97660.63;4819441;29;20550;-66
2022/05/03 08:55:14;;;;;;;71.78;36.20;;;;;;;34.97;49.24;97658.53;4827521;29;20054;-65
2022/05/03 08:58:04;;;;;;;66.93;33.47;;;;;;;35.01;47.36;97657.06;4829118;29;20057;-65
2022/05/03 09:00:46;;;;;;;75.00;34.42;;;;;;;34.86;49.66;97633.34;4830841;29;20058;-65
2022/05/03 09:03:37;;;;;;;79.88;34.35;;;;;;;34.90;49.87;97642.56;4830431;29;20065;-64
2022/05/03 09:06:41;;;;;;;84.35;33.42;;;;;;;34.87;49.95;97643.03;4821007;29;20597;-66
2022/05/03 09:09:28;;;;;;;74.15;31.77;;;;;;;34.87;46.51;97640.34;4833345;29;20069;-64
2022/05/03 09:12:30;;;;;;;70.82;33.33;;;;;;;34.84;47.93;97630.09;4830568;29;20058;-65
2022/05/03 09:15:14;;;;;;;72.38;33.97;;;;;;;35.02;46.71;97639.94;4832309;29;20062;-64
2022/05/03 09:18:03;;;;;;;70.97;32.50;;;;;;;34.87;46.77;97628.81;4828851;29;20077;-67
2022/05/03 09:24:09;;;;;;;71.78;34.70;;;;;;;34.73;49.65;97616.63;4831578;29;20062;-66
2022/05/03 09:27:03;;;;;;;57.08;31.27;;;;;;;34.69;49.68;97604.72;4828633;29;20137;-66
2022/05/03 09:30:07;;;;;;;66.93;32.75;;;;;;;34.63;46.96;97598.44;4826330;29;20057;-66
2022/05/03 09:32:56;;;;;;;69.55;33.53;;;;;;;34.65;46.54;97600.84;4832798;29;20057;-67
2022/05/03 09:35:49;;;;;;;69.53;33.05;;;;;;;34.66;44.60;97595.28;4829395;29;20376;-66
2022/05/03 09:38:33;;;;;;;79.57;32.83;;;;;;;34.62;45.73;97588.75;4832619;29;20049;-66
2022/05/03 09:41:25;;;;;;;74.38;29.95;;;;;;;34.65;42.84;97590.97;4827211;29;20471;-67
2022/05/03 09:44:14;;;;;;;64.65;30.38;;;;;;;34.68;45.60;97587.03;4836996;29;20058;-66
2022/05/03 09:47:12;;;;;;;70.32;29.95;;;;;;;34.66;45.34;97581.91;4829858;29;20066;-66
2022/05/03 09:49:54;;;;;;;76.22;32.13;;;;;;;34.72;43.62;97577.53;4818289;29;20691;-68
2022/05/03 09:52:44;;;;;;;82.82;31.20;;;;;;;34.91;43.56;97571.09;4832399;29;20137;-69
2022/05/03 09:55:38;;;;;;;64.60;30.27;;;;;;;34.91;43.52;97563.88;4829942;29;20049;-69
2022/05/03 09:58:33;;;;;;;63.13;29.65;;;;;;;34.98;44.74;97554.91;4829955;29;20077;-69
2022/05/03 10:01:09;;;;;;;70.95;31.70;;;;;;;35.05;43.38;97561.00;4816529;29;20061;-69
2022/05/03 10:03:59;;;;;;;62.92;28.38;;;;;;;35.11;44.44;97546.69;4831885;29;20058;-65
2022/05/03 10:06:42;;;;;;;73.97;29.83;;;;;;;35.07;44.33;97543.66;4832263;29;20054;-68
2022/05/03 10:09:32;;;;;;;64.40;28.80;;;;;;;35.01;44.04;97541.09;4832797;29;20070;-67
2022/05/03 10:12:19;;;;;;;69.55;28.85;;;;;;;34.99;44.28;97543.16;4833094;29;20486;-68
2022/05/03 10:20:35;;;;;;;75.00;29.98;;;;;;;34.89;42.31;97543.72;4832699;29;20126;-69
2022/05/03 10:21:39;;;;;;;67.80;29.70;;;;;;;34.83;45.17;97528.56;4832792;29;20118;-69
2022/05/03 10:24:15;;;;;;;59.60;29.48;;;;;;;34.85;44.77;97532.66;4814970;29;20149;-69
2022/05/03 10:27:12;;;;;;;67.20;29.33;;;;;;;34.90;44.69;97521.25;4832250;29;20042;-69
2022/05/03 10:30:21;;;;;;;60.45;30.27;;;;;;;34.93;44.03;97512.78;4834005;29;20122;-67
2022/05/03 10:33:29;;;;;;;59.40;28.90;;;;;;;34.82;43.36;97511.69;4819321;29;21273;-69
2022/05/03 10:36:30;;;;;;;63.13;30.58;;;;;;;34.78;42.65;97512.41;4835699;29;20665;-67
2022/05/03 10:39:26;;;;;;;70.80;28.65;;;;;;;34.72;43.48;97499.91;4835796;29;20114;-68
2022/05/03 10:42:16;;;;;;;66.53;28.38;;;;;;;34.68;42.80;97510.22;4834484;29;20110;-68
2022/05/03 10:45:04;;;;;;;74.35;29.30;;;;;;;34.65;42.66;97507.19;4835275;29;21265;-68
2022/05/03 10:47:54;;;;;;;58.53;27.70;;;;;;;34.60;40.95;97504.38;4833260;29;20157;-67
2022/05/03 10:50:43;;;;;;;63.67;28.45;;;;;;;34.60;41.65;97504.38;4833463;29;20561;-68
2022/05/03 10:53:27;;;;;;;59.50;28.20;;;;;;;34.67;42.31;97513.94;4835235;29;20054;-68
2022/05/03 10:56:21;;;;;;;76.85;28.95;;;;;;;34.63;41.00;97510.13;4834854;29;20174;-68
2022/05/03 10:59:16;;;;;;;61.75;29.85;;;;;;;34.68;40.55;97507.56;4837045;29;20065;-68
2022/05/03 11:02:09;;;;;;;73.22;28.25;;;;;;;34.66;42.13;97508.81;4837238;29;20134;-68
2022/05/03 11:05:14;;;;;;;78.18;29.00;;;;;;;34.67;39.70;97507.78;4833943;29;20068;-67
2022/05/03 11:08:23;;;;;;;65.78;27.92;;;;;;;34.67;40.32;97497.06;4837381;29;20050;-68
2022/05/03 11:11:06;;;;;;;72.38;27.88;;;;;;;34.67;40.21;97500.56;4836892;29;20150;-68
2022/05/03 11:13:54;;;;;;;58.58;26.45;;;;;;;34.63;41.32;97501.25;4837023;29;20053;-68
2022/05/03 11:16:36;;;;;;;59.00;26.58;;;;;;;34.64;40.04;97502.91;4820274;29;20138;-67
2022/05/03 11:19:29;;;;;;;66.50;27.40;;;;;;;34.71;40.09;97504.44;4836872;29;20069;-67
2022/05/03 11:22:21;;;;;;;67.13;26.95;;;;;;;34.66;39.83;97506.16;4836284;29;20054;-68
2022/05/03 11:25:07;;;;;;;58.78;27.30;;;;;;;34.62;41.51;97504.97;4836827;29;20053;-68
2022/05/03 11:28:02;;;;;;;65.38;27.92;;;;;;;34.59;41.45;97510.78;4835094;29;20058;-68
2022/05/03 11:30:52;;;;;;;59.42;31.25;;;;;;;34.56;43.06;97504.81;4817550;29;20471;-68
2022/05/03 11:33:58;;;;;;;63.85;29.00;;;;;;;34.54;40.06;97506.13;4818374;29;20062;-67
2022/05/03 11:36:50;;;;;;;71.57;30.00;;;;;;;34.50;40.51;97502.25;4818213;29;20122;-68
2022/05/03 11:39:32;;;;;;;75.22;30.60;;;;;;;34.51;41.03;97504.72;4818248;29;20369;-67
2022/05/03 11:42:22;;;;;;;68.20;28.90;;;;;;;34.52;40.37;97516.22;4816907;29;20069;-68
2022/05/03 11:45:04;;;;;;;68.70;30.55;;;;;;;34.47;40.71;97503.53;4821401;29;20058;-67
2022/05/03 11:47:53;;;;;;;69.32;29.33;;;;;;;34.43;41.03;97502.34;4819741;29;20081;-69
2022/05/03 11:57:06;;;;;;;74.70;29.67;;;;;;;34.36;40.38;97508.81;4817907;29;20462;-67
2022/05/03 11:59:49;;;;;;;63.42;29.20;;;;;;;34.29;40.18;97506.25;4818230;29;20101;-68
2022/05/03 12:02:45;;;;;;;75.13;29.77;;;;;;;34.24;41.41;97500.75;4817062;29;20082;-67
2022/05/03 12:05:28;;;;;;;68.88;31.10;;;;;;;34.21;40.90;97509.19;4816879;29;20054;-68
2022/05/03 12:08:19;;;;;;;67.72;28.98;;;;;;;34.13;41.24;97498.81;4818189;29;20046;-68
2022/05/03 12:11:01;;;;;;;77.90;30.45;;;;;;;34.09;41.30;97495.75;4803426;29;20400;-68
2022/05/03 12:13:57;;;;;;;67.72;30.27;;;;;;;34.04;42.31;97502.81;4816540;29;20061;-68
2022/05/03 12:16:33;;;;;;;61.20;29.80;;;;;;;33.97;43.45;97497.56;4816797;29;20495;-68
2022/05/03 12:19:23;;;;;;;69.00;30.10;;;;;;;33.91;44.33;97497.63;4817582;29;20054;-68
2022/05/03 12:22:21;;;;;;;67.50;30.42;;;;;;;33.84;43.32;97494.22;4817197;29;20144;-66
2022/05/03 12:25:04;;;;;;;62.25;29.13;;;;;;;33.75;46.56;97502.53;4817340;29;20311;-69
2022/05/03 12:27:56;;;;;;;72.28;30.13;;;;;;;33.67;46.12;97499.31;4815594;29;20098;-70
2022/05/03 12:30:45;;;;;;;79.07;30.42;;;;;;;33.63;42.47;97504.25;4840553;29;20042;-72
2022/05/03 12:33:48;;;;;;;55.08;30.25;;;;;;;33.55;47.85;97507.22;4818672;29;20131;-72
2022/05/03 12:36:41;;;;;;;82.85;29.25;;;;;;;33.53;45.18;97511.97;4816104;29;20058;-71
2022/05/03 12:39:37;;;;;;;78.05;31.55;;;;;;;33.46;46.71;97511.22;4815478;29;20047;-72
2022/05/03 12:42:21;;;;;;;73.70;31.85;;;;;;;33.40;48.19;97510.25;4817045;29;20092;-72
2022/05/03 12:45:12;;;;;;;59.17;29.70;;;;;;;33.32;46.95;97515.03;4817326;29;20081;-71
2022/05/03 12:48:02;;;;;;;68.85;30.23;;;;;;;33.26;47.96;97515.94;4801957;29;20047;-73
2022/05/03 12:50:44;;;;;;;54.58;27.20;;;;;;;33.21;49.64;97499.72;4798848;29;20058;-70
2022/05/03 12:53:36;;;;;;;62.83;30.60;;;;;;;33.12;58.85;97504.50;4802944;29;20054;-70
2022/05/03 12:59:25;;;;;;;85.93;30.80;;;;;;;32.73;76.41;97505.59;4817080;29;20061;-70
2022/05/03 13:02:07;;;;;;;96.53;34.67;;;;;;;32.49;97.93;97509.00;4817324;29;20058;-67
2022/05/03 13:04:56;;;;;;;71.15;34.00;;;;;;;32.11;100.00;97501.75;4817839;29;20119;-70
2022/05/03 13:07:38;;;;;;;74.00;34.67;;;;;;;31.93;88.63;97510.44;4816881;29;20054;-71
2022/05/03 13:10:28;;;;;;;64.35;29.75;;;;;;;31.87;70.27;97513.94;4816835;29;21675;-70
2022/05/03 13:13:10;;;;;;;60.45;25.80;;;;;;;31.86;58.50;97525.63;4817736;29;20049;-68
2022/05/03 13:16:00;;;;;;;51.53;22.95;;;;;;;31.92;71.27;97521.34;4817701;29;20634;-68
2022/05/03 13:18:44;;;;;;;54.10;15.70;;;;;;;31.79;52.51;97524.84;4811563;29;20388;-69
2022/05/03 13:21:47;;;;;;;44.38;12.40;;;;;;;31.86;44.26;97530.13;4817121;29;20122;-67
2022/05/03 13:24:30;;;;;;;44.42;9.95;;;;;;;31.83;42.95;97536.72;4814202;29;20126;-67
2022/05/03 13:27:19;;;;;;;38.92;10.35;;;;;;;31.90;45.56;97542.03;4816067;29;20492;-68
2022/05/03 13:30:08;;;;;;;28.08;8.52;;;;;;;31.91;51.46;97541.00;4816838;29;20158;-69
2022/05/03 13:33:03;;;;;;;43.83;9.73;;;;;;;31.87;40.95;97534.44;4831811;29;20523;-69
2022/05/03 13:42:08;;;;;;;41.15;7.55;;;;;;;31.79;37.47;97540.81;4835205;29;20130;-67
2022/05/03 13:44:57;;;;;;;43.53;10.02;;;;;;;31.77;42.74;97542.06;4833754;29;20062;-68
2022/05/03 13:47:39;;;;;;;42.03;14.38;;;;;;;31.80;38.51;97547.78;4834561;29;20053;-68
2022/05/03 13:50:30;;;;;;;56.80;17.58;;;;;;;31.80;41.87;97546.97;4850539;29;20072;-68
2022/05/03 13:53:13;;;;;;;59.35;28.48;;;;;;;31.79;44.57;97540.81;4835391;29;20608;-69